ADDS METAR Data INFO
IDs: Format: Raw Decoded Include TAF

Data at: 0038 UTC 21 Jan 2018

METAR for:KMWO (Middletown/Hook Fld, OH, US)
Text:KMWO 210015Z AUTO 21007KT 10SM SCT026 BKN046 06/00 A3010 RMK AO2 PWINO T00601005
Temperature: 6.0°C ( 43°F)
Dewpoint: -0.5°C ( 31°F) [RH = 63%]
Pressure (altimeter):30.10 inches Hg (1019.4 mb)
Winds:from the SSW (210 degrees) at 8 MPH (7 knots; 3.6 m/s)
Visibility:10 or more sm (16+ km)
Ceiling:4600 feet AGL
Clouds: scattered clouds at 2600 feet AGL, broken clouds at 4600 feet AGL
QC Flag:automated observation with no human augmentation